Lindenberg, Germany

5:37 AM CEST on July 31, 2016 (GMT +0200)
Weinberge | | Change Station

Elev 144 ft 52.18 °N, 14.23 °E | Updated 23 seconds ago

Shallow Fog
Shallow Fog
56.7 °F
Feels Like 56.7 °F
N
0.0
Wind Variable Wind from South
Gusts 0.0 mph

Today
High -- | Low -- °F
--% Chance of Precip.
Yesterday
High -- | Low -- °F
Precip. -- in
Pressure 29.89 in
Visibility 6.2 miles
Clouds
Dew Point 48 °F
Humidity 71%
Rainfall 0.00 in
Snow Depth Not available.
5:23 AM 8:55 PM
Waning Crescent, 9% visible
METAR EDDB 310320Z 00000KT 9999 MIFG NSC 14/13 Q1012 NOSIG
Pressure 29.89 in
Visibility 6.2 miles
Clouds
Dew Point 48 °F
Humidity 71%
Rainfall 0.00 in
Snow Depth Not available.
5:23 AM 8:55 PM
Waning Crescent, 9% visible
METAR EDDB 310320Z 00000KT 9999 MIFG NSC 14/13 Q1012 NOSIG

10-Day Weather Forecast

×

Almanac

Astronomy

Jul. 31, 2016 Rise Set
Actual Time
Civil Twilight
Nautical Twilight
Astronomical Twilight
Moon
Length of Visible Light
Length of Day
Tomorrow will be .
, % of the Moon is Illuminated

Today's Extremes

Country Highs Country Lows

Community

WunderPhotos

Upload Photos

1,928,734 photos uploaded!

WunderBlog® & News

Nearby

Air Quality

  Air Quality AQ Index Pollutant
Not available.

Snow Depth

Station Depth Elevation

Earthquake Activity

City Distance Mag. Time & Date
Minimum magnitude displayed is 2.5.

Coastal Water Temperatures

Place Temperature

Stations

Nearby Weather Stations

Station Location Temp. Windchill Dew Point Humidity Wind Precip. Elev Updated Type